sensor_id;sensor_type;location;lat;lon;timestamp;temperature;humidity
22161;DHT22;49035;48.812;11.762;2023-07-24T00:01:03;14.40;99.90
22161;DHT22;49035;48.812;11.762;2023-07-24T00:03:28;14.30;99.90
22161;DHT22;49035;48.812;11.762;2023-07-24T00:05:58;14.20;99.90
22161;DHT22;49035;48.812;11.762;2023-07-24T00:08:24;14.10;99.90
22161;DHT22;49035;48.812;11.762;2023-07-24T00:10:50;14.10;99.90
22161;DHT22;49035;48.812;11.762;2023-07-24T00:13:15;14.10;99.90
22161;DHT22;49035;48.812;11.762;2023-07-24T00:15:41;14.20;99.90
22161;DHT22;49035;48.812;11.762;2023-07-24T00:18:06;14.30;99.90
22161;DHT22;49035;48.812;11.762;2023-07-24T00:20:32;14.50;99.90
22161;DHT22;49035;48.812;11.762;2023-07-24T00:22:58;14.60;99.90
22161;DHT22;49035;48.812;11.762;2023-07-24T00:25:23;14.50;99.90
22161;DHT22;49035;48.812;11.762;2023-07-24T00:27:49;14.40;99.90
22161;DHT22;49035;48.812;11.762;2023-07-24T00:30:14;14.50;99.90
22161;DHT22;49035;48.812;11.762;2023-07-24T00:32:40;14.50;99.90
22161;DHT22;49035;48.812;11.762;2023-07-24T00:35:06;14.70;99.90
22161;DHT22;49035;48.812;11.762;2023-07-24T00:37:32;14.90;99.90
22161;DHT22;49035;48.812;11.762;2023-07-24T00:39:57;14.70;99.90
22161;DHT22;49035;48.812;11.762;2023-07-24T00:42:23;14.60;99.90
22161;DHT22;49035;48.812;11.762;2023-07-24T00:44:48;14.70;99.90
22161;DHT22;49035;48.812;11.762;2023-07-24T00:47:14;14.60;99.90
22161;DHT22;49035;48.812;11.762;2023-07-24T00:49:40;14.70;99.90
22161;DHT22;49035;48.812;11.762;2023-07-24T00:52:06;14.80;99.90
22161;DHT22;49035;48.812;11.762;2023-07-24T00:54:32;14.80;99.90
22161;DHT22;49035;48.812;11.762;2023-07-24T00:56:59;14.70;99.90
22161;DHT22;49035;48.812;11.762;2023-07-24T00:59:25;14.70;99.90
22161;DHT22;49035;48.812;11.762;2023-07-24T01:01:51;14.80;99.90
22161;DHT22;49035;48.812;11.762;2023-07-24T01:04:17;15.00;99.90
22161;DHT22;49035;48.812;11.762;2023-07-24T01:06:43;15.00;99.90
22161;DHT22;49035;48.812;11.762;2023-07-24T01:09:09;15.00;99.90
22161;DHT22;49035;48.812;11.762;2023-07-24T01:11:52;15.00;99.90
22161;DHT22;49035;48.812;11.762;2023-07-24T01:14:26;15.30;99.90
22161;DHT22;49035;48.812;11.762;2023-07-24T01:16:55;15.30;99.90
22161;DHT22;49035;48.812;11.762;2023-07-24T01:22:02;15.10;99.90
22161;DHT22;49035;48.812;11.762;2023-07-24T01:24:34;15.10;99.90
22161;DHT22;49035;48.812;11.762;2023-07-24T01:27:02;15.10;99.90
22161;DHT22;49035;48.812;11.762;2023-07-24T01:29:28;15.10;99.90
22161;DHT22;49035;48.812;11.762;2023-07-24T01:31:53;15.00;99.90
22161;DHT22;49035;48.812;11.762;2023-07-24T01:34:19;15.00;99.90
22161;DHT22;49035;48.812;11.762;2023-07-24T01:36:45;15.00;99.90
22161;DHT22;49035;48.812;11.762;2023-07-24T01:39:11;15.00;99.90
22161;DHT22;49035;48.812;11.762;2023-07-24T01:41:37;14.90;99.90
22161;DHT22;49035;48.812;11.762;2023-07-24T01:44:03;14.90;99.90
22161;DHT22;49035;48.812;11.762;2023-07-24T01:46:30;15.20;99.90
22161;DHT22;49035;48.812;11.762;2023-07-24T01:48:56;15.30;99.90
22161;DHT22;49035;48.812;11.762;2023-07-24T01:51:21;15.40;99.90
22161;DHT22;49035;48.812;11.762;2023-07-24T01:53:47;15.60;99.90
22161;DHT22;49035;48.812;11.762;2023-07-24T01:56:13;15.50;99.90
22161;DHT22;49035;48.812;11.762;2023-07-24T01:58:38;15.50;99.90
22161;DHT22;49035;48.812;11.762;2023-07-24T02:01:04;15.60;99.90
22161;DHT22;49035;48.812;11.762;2023-07-24T02:03:29;15.80;99.90
22161;DHT22;49035;48.812;11.762;2023-07-24T02:05:55;15.90;99.90
22161;DHT22;49035;48.812;11.762;2023-07-24T02:08:20;15.90;99.90
22161;DHT22;49035;48.812;11.762;2023-07-24T02:10:48;15.90;99.90
22161;DHT22;49035;48.812;11.762;2023-07-24T02:13:15;15.90;99.90
22161;DHT22;49035;48.812;11.762;2023-07-24T02:15:40;15.90;99.90
22161;DHT22;49035;48.812;11.762;2023-07-24T02:18:06;16.10;99.90
22161;DHT22;49035;48.812;11.762;2023-07-24T02:20:31;15.90;99.90
22161;DHT22;49035;48.812;11.762;2023-07-24T02:22:57;15.90;99.90
22161;DHT22;49035;48.812;11.762;2023-07-24T02:25:22;15.80;99.90
22161;DHT22;49035;48.812;11.762;2023-07-24T02:27:48;15.80;99.90
22161;DHT22;49035;48.812;11.762;2023-07-24T02:30:14;15.70;99.90
22161;DHT22;49035;48.812;11.762;2023-07-24T02:32:39;15.60;99.90
22161;DHT22;49035;48.812;11.762;2023-07-24T02:35:05;15.50;99.90
22161;DHT22;49035;48.812;11.762;2023-07-24T02:37:31;15.40;99.90
22161;DHT22;49035;48.812;11.762;2023-07-24T02:39:56;15.30;99.90
22161;DHT22;49035;48.812;11.762;2023-07-24T02:42:22;15.30;99.90
22161;DHT22;49035;48.812;11.762;2023-07-24T02:44:47;15.10;99.90
22161;DHT22;49035;48.812;11.762;2023-07-24T02:47:13;15.00;99.90
22161;DHT22;49035;48.812;11.762;2023-07-24T02:49:38;14.90;99.90
22161;DHT22;49035;48.812;11.762;2023-07-24T02:52:04;14.90;99.90
22161;DHT22;49035;48.812;11.762;2023-07-24T02:54:30;14.90;99.90
22161;DHT22;49035;48.812;11.762;2023-07-24T02:56:56;15.00;99.90
22161;DHT22;49035;48.812;11.762;2023-07-24T02:59:21;15.00;99.90
22161;DHT22;49035;48.812;11.762;2023-07-24T03:01:47;15.10;99.90
22161;DHT22;49035;48.812;11.762;2023-07-24T03:04:12;15.20;99.90
22161;DHT22;49035;48.812;11.762;2023-07-24T03:06:39;15.20;99.90
22161;DHT22;49035;48.812;11.762;2023-07-24T03:09:04;15.30;99.90
22161;DHT22;49035;48.812;11.762;2023-07-24T03:11:30;15.30;99.90
22161;DHT22;49035;48.812;11.762;2023-07-24T03:13:56;15.30;99.90
22161;DHT22;49035;48.812;11.762;2023-07-24T03:16:21;15.40;99.90
22161;DHT22;49035;48.812;11.762;2023-07-24T03:18:47;15.50;99.90
22161;DHT22;49035;48.812;11.762;2023-07-24T03:21:12;15.60;99.90
22161;DHT22;49035;48.812;11.762;2023-07-24T03:23:38;15.70;99.90
22161;DHT22;49035;48.812;11.762;2023-07-24T03:26:03;15.80;99.90
22161;DHT22;49035;48.812;11.762;2023-07-24T03:28:29;15.90;99.90
22161;DHT22;49035;48.812;11.762;2023-07-24T03:30:55;16.00;99.90
22161;DHT22;49035;48.812;11.762;2023-07-24T03:33:20;16.00;99.90
22161;DHT22;49035;48.812;11.762;2023-07-24T03:35:46;15.80;99.90
22161;DHT22;49035;48.812;11.762;2023-07-24T03:38:12;15.60;99.90
22161;DHT22;49035;48.812;11.762;2023-07-24T03:40:37;15.50;99.90
22161;DHT22;49035;48.812;11.762;2023-07-24T03:43:03;15.40;99.90
22161;DHT22;49035;48.812;11.762;2023-07-24T03:45:28;15.30;99.90
22161;DHT22;49035;48.812;11.762;2023-07-24T03:47:54;15.20;99.90
22161;DHT22;49035;48.812;11.762;2023-07-24T03:50:19;15.20;99.90
22161;DHT22;49035;48.812;11.762;2023-07-24T03:52:45;15.10;99.90
22161;DHT22;49035;48.812;11.762;2023-07-24T03:55:10;15.10;99.90
22161;DHT22;49035;48.812;11.762;2023-07-24T03:57:36;15.10;99.90
22161;DHT22;49035;48.812;11.762;2023-07-24T04:00:02;15.20;99.90
22161;DHT22;49035;48.812;11.762;2023-07-24T04:02:28;15.20;99.90
22161;DHT22;49035;48.812;11.762;2023-07-24T04:04:54;15.20;99.90
22161;DHT22;49035;48.812;11.762;2023-07-24T04:07:19;15.10;99.90
22161;DHT22;49035;48.812;11.762;2023-07-24T04:09:45;15.10;99.90
22161;DHT22;49035;48.812;11.762;2023-07-24T04:12:10;15.20;99.90
22161;DHT22;49035;48.812;11.762;2023-07-24T04:14:36;15.20;99.90
22161;DHT22;49035;48.812;11.762;2023-07-24T04:17:01;15.20;99.90
22161;DHT22;49035;48.812;11.762;2023-07-24T04:19:27;15.20;99.90
22161;DHT22;49035;48.812;11.762;2023-07-24T04:21:52;15.20;99.90
22161;DHT22;49035;48.812;11.762;2023-07-24T04:24:18;15.30;99.90
22161;DHT22;49035;48.812;11.762;2023-07-24T04:26:43;15.30;99.90
22161;DHT22;49035;48.812;11.762;2023-07-24T04:29:09;15.40;99.90
22161;DHT22;49035;48.812;11.762;2023-07-24T04:31:34;15.50;99.90
22161;DHT22;49035;48.812;11.762;2023-07-24T04:34:00;15.50;99.90
22161;DHT22;49035;48.812;11.762;2023-07-24T04:36:25;15.50;99.90
22161;DHT22;49035;48.812;11.762;2023-07-24T04:38:51;15.60;99.90
22161;DHT22;49035;48.812;11.762;2023-07-24T04:41:16;15.60;99.90
22161;DHT22;49035;48.812;11.762;2023-07-24T04:43:42;15.70;99.90
22161;DHT22;49035;48.812;11.762;2023-07-24T04:46:08;15.80;99.90
22161;DHT22;49035;48.812;11.762;2023-07-24T04:48:33;15.90;99.90
22161;DHT22;49035;48.812;11.762;2023-07-24T04:50:59;15.90;99.90
22161;DHT22;49035;48.812;11.762;2023-07-24T04:53:24;16.00;99.90
22161;DHT22;49035;48.812;11.762;2023-07-24T04:55:50;16.10;99.90
22161;DHT22;49035;48.812;11.762;2023-07-24T04:58:15;16.20;99.90
22161;DHT22;49035;48.812;11.762;2023-07-24T05:00:41;16.10;99.90
22161;DHT22;49035;48.812;11.762;2023-07-24T05:03:07;16.20;99.90
22161;DHT22;49035;48.812;11.762;2023-07-24T05:05:39;16.20;99.90
22161;DHT22;49035;48.812;11.762;2023-07-24T05:08:04;16.30;99.90
22161;DHT22;49035;48.812;11.762;2023-07-24T05:10:35;16.40;99.90
22161;DHT22;49035;48.812;11.762;2023-07-24T05:13:00;16.70;99.90
22161;DHT22;49035;48.812;11.762;2023-07-24T05:15:26;17.10;99.90
22161;DHT22;49035;48.812;11.762;2023-07-24T05:17:52;17.60;99.90
22161;DHT22;49035;48.812;11.762;2023-07-24T05:20:17;17.90;99.90
22161;DHT22;49035;48.812;11.762;2023-07-24T05:22:43;18.20;99.90
22161;DHT22;49035;48.812;11.762;2023-07-24T05:25:08;18.40;99.90
22161;DHT22;49035;48.812;11.762;2023-07-24T05:27:34;18.60;99.90
22161;DHT22;49035;48.812;11.762;2023-07-24T05:30:00;18.70;99.90
22161;DHT22;49035;48.812;11.762;2023-07-24T05:32:26;18.80;99.90
22161;DHT22;49035;48.812;11.762;2023-07-24T05:34:52;18.90;99.90
22161;DHT22;49035;48.812;11.762;2023-07-24T05:37:17;19.00;99.90
22161;DHT22;49035;48.812;11.762;2023-07-24T05:39:43;19.00;99.90
22161;DHT22;49035;48.812;11.762;2023-07-24T05:42:08;19.10;99.90
22161;DHT22;49035;48.812;11.762;2023-07-24T05:44:34;19.50;99.90
22161;DHT22;49035;48.812;11.762;2023-07-24T05:47:02;19.60;99.90
22161;DHT22;49035;48.812;11.762;2023-07-24T05:49:28;19.90;99.90
22161;DHT22;49035;48.812;11.762;2023-07-24T05:51:54;20.50;99.90
22161;DHT22;49035;48.812;11.762;2023-07-24T05:54:19;20.70;99.90
22161;DHT22;49035;48.812;11.762;2023-07-24T05:56:45;20.90;99.90
22161;DHT22;49035;48.812;11.762;2023-07-24T05:59:10;21.20;99.90
22161;DHT22;49035;48.812;11.762;2023-07-24T06:01:36;21.20;99.90
22161;DHT22;49035;48.812;11.762;2023-07-24T06:04:02;21.20;99.90
22161;DHT22;49035;48.812;11.762;2023-07-24T06:06:27;21.00;99.90
22161;DHT22;49035;48.812;11.762;2023-07-24T06:08:53;20.50;99.90
22161;DHT22;49035;48.812;11.762;2023-07-24T06:11:19;20.20;99.90
22161;DHT22;49035;48.812;11.762;2023-07-24T06:13:44;20.10;99.90
22161;DHT22;49035;48.812;11.762;2023-07-24T06:16:10;20.90;99.90
22161;DHT22;49035;48.812;11.762;2023-07-24T06:18:38;22.20;99.90
22161;DHT22;49035;48.812;11.762;2023-07-24T06:21:03;23.40;99.90
22161;DHT22;49035;48.812;11.762;2023-07-24T06:23:29;24.20;99.90
22161;DHT22;49035;48.812;11.762;2023-07-24T06:25:55;25.00;99.90
22161;DHT22;49035;48.812;11.762;2023-07-24T06:28:21;25.40;99.90
22161;DHT22;49035;48.812;11.762;2023-07-24T06:30:47;26.10;97.00
22161;DHT22;49035;48.812;11.762;2023-07-24T06:33:13;26.00;94.80
22161;DHT22;49035;48.812;11.762;2023-07-24T06:35:38;25.80;95.40
22161;DHT22;49035;48.812;11.762;2023-07-24T06:38:04;25.70;94.30
22161;DHT22;49035;48.812;11.762;2023-07-24T06:40:30;25.30;95.80
22161;DHT22;49035;48.812;11.762;2023-07-24T06:42:55;24.90;96.90
22161;DHT22;49035;48.812;11.762;2023-07-24T06:45:21;24.60;98.80
22161;DHT22;49035;48.812;11.762;2023-07-24T06:47:46;24.10;98.70
22161;DHT22;49035;48.812;11.762;2023-07-24T06:50:12;23.70;99.70
22161;DHT22;49035;48.812;11.762;2023-07-24T06:52:38;23.40;99.90
22161;DHT22;49035;48.812;11.762;2023-07-24T06:55:03;22.90;99.90
22161;DHT22;49035;48.812;11.762;2023-07-24T06:57:29;22.70;99.90
22161;DHT22;49035;48.812;11.762;2023-07-24T06:59:55;22.50;99.90
22161;DHT22;49035;48.812;11.762;2023-07-24T07:02:20;22.20;99.90
22161;DHT22;49035;48.812;11.762;2023-07-24T07:04:46;21.40;99.90
22161;DHT22;49035;48.812;11.762;2023-07-24T07:07:11;20.80;99.90
22161;DHT22;49035;48.812;11.762;2023-07-24T07:09:37;20.30;99.90
22161;DHT22;49035;48.812;11.762;2023-07-24T07:12:03;20.10;99.90
22161;DHT22;49035;48.812;11.762;2023-07-24T07:14:28;20.00;99.90
22161;DHT22;49035;48.812;11.762;2023-07-24T07:16:54;19.90;99.90
22161;DHT22;49035;48.812;11.762;2023-07-24T07:19:19;19.70;99.90
22161;DHT22;49035;48.812;11.762;2023-07-24T07:21:45;19.40;99.90
22161;DHT22;49035;48.812;11.762;2023-07-24T07:24:10;19.20;99.90
22161;DHT22;49035;48.812;11.762;2023-07-24T07:26:36;19.00;99.90
22161;DHT22;49035;48.812;11.762;2023-07-24T07:29:01;18.90;99.90
22161;DHT22;49035;48.812;11.762;2023-07-24T07:31:27;18.60;99.90
22161;DHT22;49035;48.812;11.762;2023-07-24T07:33:53;18.40;99.90
22161;DHT22;49035;48.812;11.762;2023-07-24T07:36:18;18.40;99.90
22161;DHT22;49035;48.812;11.762;2023-07-24T07:38:44;18.30;99.90
22161;DHT22;49035;48.812;11.762;2023-07-24T07:41:09;18.20;99.90
22161;DHT22;49035;48.812;11.762;2023-07-24T07:43:35;18.10;99.90
22161;DHT22;49035;48.812;11.762;2023-07-24T07:46:02;18.00;99.90
22161;DHT22;49035;48.812;11.762;2023-07-24T07:48:28;18.00;99.90
22161;DHT22;49035;48.812;11.762;2023-07-24T07:50:53;17.90;99.90
22161;DHT22;49035;48.812;11.762;2023-07-24T07:53:19;18.00;99.90
22161;DHT22;49035;48.812;11.762;2023-07-24T07:55:45;18.00;99.90
22161;DHT22;49035;48.812;11.762;2023-07-24T07:58:11;18.00;99.90
22161;DHT22;49035;48.812;11.762;2023-07-24T08:00:36;17.90;99.90
22161;DHT22;49035;48.812;11.762;2023-07-24T08:03:05;17.90;99.90
22161;DHT22;49035;48.812;11.762;2023-07-24T08:05:30;17.90;99.90
22161;DHT22;49035;48.812;11.762;2023-07-24T08:07:57;17.90;99.90
22161;DHT22;49035;48.812;11.762;2023-07-24T08:10:23;17.90;99.90
22161;DHT22;49035;48.812;11.762;2023-07-24T08:12:48;17.90;99.90
22161;DHT22;49035;48.812;11.762;2023-07-24T08:15:14;18.00;99.90
22161;DHT22;49035;48.812;11.762;2023-07-24T08:17:39;18.00;99.90
22161;DHT22;49035;48.812;11.762;2023-07-24T08:20:05;18.00;99.90
22161;DHT22;49035;48.812;11.762;2023-07-24T08:22:31;18.10;99.90
22161;DHT22;49035;48.812;11.762;2023-07-24T08:24:57;18.10;99.90
22161;DHT22;49035;48.812;11.762;2023-07-24T08:27:22;18.20;99.90
22161;DHT22;49035;48.812;11.762;2023-07-24T08:29:51;18.20;99.90
22161;DHT22;49035;48.812;11.762;2023-07-24T08:32:17;18.20;99.90
22161;DHT22;49035;48.812;11.762;2023-07-24T08:34:43;18.10;99.90
22161;DHT22;49035;48.812;11.762;2023-07-24T08:37:08;18.10;99.90
22161;DHT22;49035;48.812;11.762;2023-07-24T08:39:34;18.10;99.90
22161;DHT22;49035;48.812;11.762;2023-07-24T08:42:00;18.00;99.90
22161;DHT22;49035;48.812;11.762;2023-07-24T08:44:32;18.00;99.90
22161;DHT22;49035;48.812;11.762;2023-07-24T08:46:58;18.00;99.90
22161;DHT22;49035;48.812;11.762;2023-07-24T08:49:26;18.10;99.90
22161;DHT22;49035;48.812;11.762;2023-07-24T08:51:51;18.20;99.90
22161;DHT22;49035;48.812;11.762;2023-07-24T08:54:18;18.20;99.90
22161;DHT22;49035;48.812;11.762;2023-07-24T08:56:44;18.20;99.90
22161;DHT22;49035;48.812;11.762;2023-07-24T08:59:13;18.20;99.90
22161;DHT22;49035;48.812;11.762;2023-07-24T09:01:40;18.20;99.90
22161;DHT22;49035;48.812;11.762;2023-07-24T09:04:05;18.20;99.90
22161;DHT22;49035;48.812;11.762;2023-07-24T09:06:31;18.30;99.90
22161;DHT22;49035;48.812;11.762;2023-07-24T09:08:57;18.50;99.90
22161;DHT22;49035;48.812;11.762;2023-07-24T09:11:22;18.80;99.90
22161;DHT22;49035;48.812;11.762;2023-07-24T09:13:48;19.20;99.90
22161;DHT22;49035;48.812;11.762;2023-07-24T09:16:25;19.40;99.90
22161;DHT22;49035;48.812;11.762;2023-07-24T09:18:52;19.50;99.90
22161;DHT22;49035;48.812;11.762;2023-07-24T09:21:31;19.60;99.90
22161;DHT22;49035;48.812;11.762;2023-07-24T09:23:57;20.10;99.90
22161;DHT22;49035;48.812;11.762;2023-07-24T09:26:34;20.80;99.90
22161;DHT22;49035;48.812;11.762;2023-07-24T09:28:59;21.70;99.90
22161;DHT22;49035;48.812;11.762;2023-07-24T09:31:35;22.50;99.90
22161;DHT22;49035;48.812;11.762;2023-07-24T09:34:02;23.80;99.90
22161;DHT22;49035;48.812;11.762;2023-07-24T09:36:37;24.60;99.90
22161;DHT22;49035;48.812;11.762;2023-07-24T09:39:03;24.60;99.90
22161;DHT22;49035;48.812;11.762;2023-07-24T09:41:31;24.20;99.90
22161;DHT22;49035;48.812;11.762;2023-07-24T09:44:00;24.10;99.90
22161;DHT22;49035;48.812;11.762;2023-07-24T09:46:26;24.50;99.90
22161;DHT22;49035;48.812;11.762;2023-07-24T09:48:53;25.10;99.90
22161;DHT22;49035;48.812;11.762;2023-07-24T09:51:20;25.70;99.90
22161;DHT22;49035;48.812;11.762;2023-07-24T09:54:12;26.00;99.90
22161;DHT22;49035;48.812;11.762;2023-07-24T09:56:41;26.20;99.90
22161;DHT22;49035;48.812;11.762;2023-07-24T09:59:07;26.10;99.90
22161;DHT22;49035;48.812;11.762;2023-07-24T10:01:34;26.10;99.90
22161;DHT22;49035;48.812;11.762;2023-07-24T10:04:01;26.70;99.90
22161;DHT22;49035;48.812;11.762;2023-07-24T10:06:29;27.20;99.90
22161;DHT22;49035;48.812;11.762;2023-07-24T10:08:56;27.80;99.90
22161;DHT22;49035;48.812;11.762;2023-07-24T10:11:22;27.50;99.90
22161;DHT22;49035;48.812;11.762;2023-07-24T10:13:48;27.70;99.90
22161;DHT22;49035;48.812;11.762;2023-07-24T10:16:14;27.80;98.80
22161;DHT22;49035;48.812;11.762;2023-07-24T10:18:44;28.00;97.90
22161;DHT22;49035;48.812;11.762;2023-07-24T10:21:11;28.00;97.20
22161;DHT22;49035;48.812;11.762;2023-07-24T10:23:40;27.50;96.30
22161;DHT22;49035;48.812;11.762;2023-07-24T10:26:07;27.20;98.40
22161;DHT22;49035;48.812;11.762;2023-07-24T10:28:38;27.00;97.80
22161;DHT22;49035;48.812;11.762;2023-07-24T10:33:46;27.10;98.20
22161;DHT22;49035;48.812;11.762;2023-07-24T10:36:11;27.30;97.80
22161;DHT22;49035;48.812;11.762;2023-07-24T10:38:42;27.40;96.40
22161;DHT22;49035;48.812;11.762;2023-07-24T10:41:10;27.90;95.90
22161;DHT22;49035;48.812;11.762;2023-07-24T10:43:52;27.90;93.30
22161;DHT22;49035;48.812;11.762;2023-07-24T10:46:39;28.00;93.50
22161;DHT22;49035;48.812;11.762;2023-07-24T10:49:06;28.00;92.60
22161;DHT22;49035;48.812;11.762;2023-07-24T10:51:31;27.90;93.50
22161;DHT22;49035;48.812;11.762;2023-07-24T10:54:03;28.00;93.30
22161;DHT22;49035;48.812;11.762;2023-07-24T10:56:29;28.00;92.40
22161;DHT22;49035;48.812;11.762;2023-07-24T10:58:54;28.00;91.10
22161;DHT22;49035;48.812;11.762;2023-07-24T11:01:20;28.20;90.90
22161;DHT22;49035;48.812;11.762;2023-07-24T11:03:46;28.50;91.60
22161;DHT22;49035;48.812;11.762;2023-07-24T11:06:14;28.70;91.90
22161;DHT22;49035;48.812;11.762;2023-07-24T11:08:39;29.20;89.80
22161;DHT22;49035;48.812;11.762;2023-07-24T11:11:07;29.30;90.80
22161;DHT22;49035;48.812;11.762;2023-07-24T11:13:33;29.60;89.30
22161;DHT22;49035;48.812;11.762;2023-07-24T11:16:04;29.60;87.20
22161;DHT22;49035;48.812;11.762;2023-07-24T11:18:30;29.80;86.10
22161;DHT22;49035;48.812;11.762;2023-07-24T11:20:56;30.00;84.40
22161;DHT22;49035;48.812;11.762;2023-07-24T11:23:23;30.00;83.40
22161;DHT22;49035;48.812;11.762;2023-07-24T11:25:53;29.90;83.50
22161;DHT22;49035;48.812;11.762;2023-07-24T11:28:19;29.20;84.20
22161;DHT22;49035;48.812;11.762;2023-07-24T11:30:45;28.50;84.50
22161;DHT22;49035;48.812;11.762;2023-07-24T11:33:12;28.20;86.20
22161;DHT22;49035;48.812;11.762;2023-07-24T11:35:40;28.00;86.80
22161;DHT22;49035;48.812;11.762;2023-07-24T11:38:08;28.10;87.60
22161;DHT22;49035;48.812;11.762;2023-07-24T11:40:39;27.70;87.10
22161;DHT22;49035;48.812;11.762;2023-07-24T11:43:14;27.40;87.30
22161;DHT22;49035;48.812;11.762;2023-07-24T11:45:42;27.00;88.30
22161;DHT22;49035;48.812;11.762;2023-07-24T11:48:11;26.30;90.40
22161;DHT22;49035;48.812;11.762;2023-07-24T11:50:45;25.80;92.00
22161;DHT22;49035;48.812;11.762;2023-07-24T11:53:20;25.60;93.10
22161;DHT22;49035;48.812;11.762;2023-07-24T11:55:48;25.90;94.40
22161;DHT22;49035;48.812;11.762;2023-07-24T11:58:15;26.60;93.30
22161;DHT22;49035;48.812;11.762;2023-07-24T12:00:41;27.30;91.00
22161;DHT22;49035;48.812;11.762;2023-07-24T12:03:07;27.40;92.20
22161;DHT22;49035;48.812;11.762;2023-07-24T12:05:41;28.00;90.30
22161;DHT22;49035;48.812;11.762;2023-07-24T12:08:07;29.30;91.80
22161;DHT22;49035;48.812;11.762;2023-07-24T12:10:36;29.80;85.60
22161;DHT22;49035;48.812;11.762;2023-07-24T12:13:02;29.50;84.20
22161;DHT22;49035;48.812;11.762;2023-07-24T12:15:27;28.90;83.30
22161;DHT22;49035;48.812;11.762;2023-07-24T12:17:53;28.60;84.40
22161;DHT22;49035;48.812;11.762;2023-07-24T12:20:19;28.20;87.10
22161;DHT22;49035;48.812;11.762;2023-07-24T12:22:45;27.60;88.50
22161;DHT22;49035;48.812;11.762;2023-07-24T12:25:11;26.80;90.10
22161;DHT22;49035;48.812;11.762;2023-07-24T12:27:37;25.90;91.40
22161;DHT22;49035;48.812;11.762;2023-07-24T12:30:05;25.40;93.50
22161;DHT22;49035;48.812;11.762;2023-07-24T12:32:31;24.60;97.80
22161;DHT22;49035;48.812;11.762;2023-07-24T12:34:57;23.50;99.90
22161;DHT22;49035;48.812;11.762;2023-07-24T12:37:22;22.50;99.90
22161;DHT22;49035;48.812;11.762;2023-07-24T12:39:48;21.90;99.90
22161;DHT22;49035;48.812;11.762;2023-07-24T12:42:15;21.50;99.90
22161;DHT22;49035;48.812;11.762;2023-07-24T12:44:41;21.20;99.90
22161;DHT22;49035;48.812;11.762;2023-07-24T12:47:08;21.10;99.90
22161;DHT22;49035;48.812;11.762;2023-07-24T12:49:33;20.80;99.90
22161;DHT22;49035;48.812;11.762;2023-07-24T12:51:59;20.50;99.90
22161;DHT22;49035;48.812;11.762;2023-07-24T12:54:25;20.30;99.90
22161;DHT22;49035;48.812;11.762;2023-07-24T12:56:51;20.10;99.90
22161;DHT22;49035;48.812;11.762;2023-07-24T12:59:17;19.90;99.90
22161;DHT22;49035;48.812;11.762;2023-07-24T13:01:44;19.80;99.90
22161;DHT22;49035;48.812;11.762;2023-07-24T13:04:10;19.60;99.90
22161;DHT22;49035;48.812;11.762;2023-07-24T13:06:35;19.50;99.90
22161;DHT22;49035;48.812;11.762;2023-07-24T13:09:01;19.40;99.90
22161;DHT22;49035;48.812;11.762;2023-07-24T13:11:28;19.60;99.90
22161;DHT22;49035;48.812;11.762;2023-07-24T13:13:54;19.90;99.90
22161;DHT22;49035;48.812;11.762;2023-07-24T13:16:20;20.40;99.90
22161;DHT22;49035;48.812;11.762;2023-07-24T13:18:46;20.90;99.90
22161;DHT22;49035;48.812;11.762;2023-07-24T13:21:11;21.20;99.90
22161;DHT22;49035;48.812;11.762;2023-07-24T13:23:37;21.40;99.90
22161;DHT22;49035;48.812;11.762;2023-07-24T13:26:03;21.80;99.90
22161;DHT22;49035;48.812;11.762;2023-07-24T13:28:28;22.50;99.90
22161;DHT22;49035;48.812;11.762;2023-07-24T13:30:54;23.30;99.90
22161;DHT22;49035;48.812;11.762;2023-07-24T13:33:20;24.00;99.90
22161;DHT22;49035;48.812;11.762;2023-07-24T13:35:47;24.80;99.90
22161;DHT22;49035;48.812;11.762;2023-07-24T13:38:13;25.40;99.90
22161;DHT22;49035;48.812;11.762;2023-07-24T13:40:40;25.70;99.90
22161;DHT22;49035;48.812;11.762;2023-07-24T13:43:05;25.80;99.90
22161;DHT22;49035;48.812;11.762;2023-07-24T13:45:31;25.80;99.90
22161;DHT22;49035;48.812;11.762;2023-07-24T13:47:57;26.10;99.90
22161;DHT22;49035;48.812;11.762;2023-07-24T13:50:23;26.30;99.90
22161;DHT22;49035;48.812;11.762;2023-07-24T13:52:49;26.40;99.90
22161;DHT22;49035;48.812;11.762;2023-07-24T13:55:14;26.30;99.90
22161;DHT22;49035;48.812;11.762;2023-07-24T13:57:41;26.20;99.90
22161;DHT22;49035;48.812;11.762;2023-07-24T14:00:07;26.20;99.90
22161;DHT22;49035;48.812;11.762;2023-07-24T14:02:32;26.20;99.90
22161;DHT22;49035;48.812;11.762;2023-07-24T14:04:58;26.30;99.90
22161;DHT22;49035;48.812;11.762;2023-07-24T14:07:24;26.30;99.90
22161;DHT22;49035;48.812;11.762;2023-07-24T14:09:50;26.50;99.90
22161;DHT22;49035;48.812;11.762;2023-07-24T14:12:15;26.60;99.90
22161;DHT22;49035;48.812;11.762;2023-07-24T14:14:41;26.70;99.90
22161;DHT22;49035;48.812;11.762;2023-07-24T14:17:07;27.00;99.90
22161;DHT22;49035;48.812;11.762;2023-07-24T14:19:32;27.90;99.90
22161;DHT22;49035;48.812;11.762;2023-07-24T14:21:58;28.60;99.60
22161;DHT22;49035;48.812;11.762;2023-07-24T14:24:24;28.80;97.30
22161;DHT22;49035;48.812;11.762;2023-07-24T14:26:49;28.80;94.30
22161;DHT22;49035;48.812;11.762;2023-07-24T14:29:15;28.70;92.00
22161;DHT22;49035;48.812;11.762;2023-07-24T14:31:43;28.50;92.90
22161;DHT22;49035;48.812;11.762;2023-07-24T14:34:09;28.10;93.90
22161;DHT22;49035;48.812;11.762;2023-07-24T14:36:37;27.50;94.30
22161;DHT22;49035;48.812;11.762;2023-07-24T14:39:03;27.20;95.00
22161;DHT22;49035;48.812;11.762;2023-07-24T14:41:29;26.90;94.60
22161;DHT22;49035;48.812;11.762;2023-07-24T14:43:55;26.80;95.60
22161;DHT22;49035;48.812;11.762;2023-07-24T14:46:20;26.80;95.60
22161;DHT22;49035;48.812;11.762;2023-07-24T14:48:46;26.90;95.60
22161;DHT22;49035;48.812;11.762;2023-07-24T14:51:11;26.70;94.60
22161;DHT22;49035;48.812;11.762;2023-07-24T14:53:37;26.40;96.70
22161;DHT22;49035;48.812;11.762;2023-07-24T14:56:03;26.20;96.90
22161;DHT22;49035;48.812;11.762;2023-07-24T14:58:29;26.00;95.90
22161;DHT22;49035;48.812;11.762;2023-07-24T15:00:54;25.70;96.00
22161;DHT22;49035;48.812;11.762;2023-07-24T15:03:20;25.30;96.30
22161;DHT22;49035;48.812;11.762;2023-07-24T15:05:46;24.80;97.40
22161;DHT22;49035;48.812;11.762;2023-07-24T15:08:11;24.30;99.90
22161;DHT22;49035;48.812;11.762;2023-07-24T15:10:37;23.60;99.90
22161;DHT22;49035;48.812;11.762;2023-07-24T15:13:03;23.10;99.90
22161;DHT22;49035;48.812;11.762;2023-07-24T15:15:28;22.70;99.90